Time,TemperatureF,DewpointF,PressureIn,WindDirection,WindDirectionDegrees,WindSpeedMPH,WindSpeedGustMPH,Humidity,HourlyPrecipIn,Conditions,Clouds,dailyrainin,SolarRadiationWatts/m^2,SoftwareType,DateUTC
2013-07-09 00:02:00,92.0,66.0,-100.00,SSW,209,9.0,22.0,42,0.00,,,0.00,0.000000,,2013-07-09 07:02:00,
2013-07-09 00:11:00,92.0,66.0,-100.00,SSW,209,9.0,22.0,42,0.00,,,0.00,0.000000,,2013-07-09 07:11:00,
2013-07-09 00:22:00,92.0,66.0,-100.00,SSW,209,9.0,22.0,42,0.00,,,0.00,0.000000,,2013-07-09 07:22:00,
2013-07-09 00:53:00,90.0,68.0,-100.00,SSW,208,10.0,18.0,49,0.00,,,0.00,0.000000,,2013-07-09 07:53:00,
2013-07-09 01:01:00,90.0,68.0,-100.00,SSW,208,10.0,18.0,49,0.00,,,0.00,0.000000,,2013-07-09 08:01:00,
2013-07-09 01:11:00,90.0,68.0,-100.00,SSW,208,10.0,18.0,49,0.00,,,0.00,0.000000,,2013-07-09 08:11:00,
2013-07-09 01:22:00,90.0,68.0,-100.00,SSW,208,10.0,18.0,49,0.00,,,0.00,0.000000,,2013-07-09 08:22:00,
2013-07-09 01:52:00,89.0,67.0,-100.00,SW,218,8.0,19.0,49,0.00,,,0.00,0.000000,,2013-07-09 08:52:00,
2013-07-09 02:02:00,89.0,67.0,-100.00,SW,218,8.0,19.0,49,0.00,,,0.00,0.000000,,2013-07-09 09:02:00,
2013-07-09 02:11:00,89.0,67.0,-100.00,SW,218,8.0,19.0,49,0.00,,,0.00,0.000000,,2013-07-09 09:11:00,
2013-07-09 02:22:00,89.0,67.0,-100.00,SW,218,8.0,19.0,49,0.00,,,0.00,0.000000,,2013-07-09 09:22:00,
2013-07-09 02:53:00,89.0,65.0,-100.00,SSW,209,6.0,16.0,46,0.00,,,0.00,0.000000,,2013-07-09 09:53:00,
2013-07-09 03:01:00,89.0,65.0,-100.00,SSW,209,6.0,16.0,46,0.00,,,0.00,0.000000,,2013-07-09 10:01:00,
2013-07-09 03:11:00,89.0,65.0,-100.00,SSW,209,6.0,16.0,46,0.00,,,0.00,0.000000,,2013-07-09 10:11:00,
2013-07-09 03:22:00,89.0,65.0,-100.00,SSW,209,6.0,16.0,46,0.00,,,0.00,0.000000,,2013-07-09 10:22:00,
2013-07-09 03:52:00,87.0,64.0,-100.00,SW,226,6.0,10.0,46,0.00,,,0.00,0.000000,,2013-07-09 10:52:00,
2013-07-09 04:01:00,87.0,64.0,-100.00,SW,226,6.0,10.0,46,0.00,,,0.00,0.000000,,2013-07-09 11:01:00,
2013-07-09 04:11:00,87.0,64.0,-100.00,SW,226,6.0,10.0,46,0.00,,,0.00,0.000000,,2013-07-09 11:11:00,
2013-07-09 04:22:00,87.0,64.0,-100.00,SW,226,6.0,10.0,46,0.00,,,0.00,0.000000,,2013-07-09 11:22:00,
2013-07-09 04:53:00,88.0,68.0,-100.00,SSW,209,4.0,17.0,51,0.00,,,0.00,0.000000,,2013-07-09 11:53:00,
2013-07-09 05:02:00,88.0,68.0,-100.00,SSW,209,4.0,17.0,51,0.00,,,0.00,0.000000,,2013-07-09 12:02:00,
2013-07-09 05:11:00,88.0,68.0,-100.00,SSW,209,4.0,17.0,51,0.00,,,0.00,0.000000,,2013-07-09 12:11:00,
2013-07-09 05:22:00,88.0,68.0,-100.00,SSW,209,4.0,17.0,51,0.00,,,0.00,0.000000,,2013-07-09 12:22:00,
2013-07-09 05:52:00,88.0,69.0,-100.00,SSW,203,15.0,29.0,53,0.00,,,0.00,0.000000,,2013-07-09 12:52:00,
2013-07-09 06:01:00,88.0,69.0,-100.00,SSW,203,15.0,29.0,53,0.00,,,0.00,0.000000,,2013-07-09 13:01:00,
2013-07-09 06:11:00,88.0,69.0,-100.00,SSW,203,15.0,29.0,53,0.00,,,0.00,0.000000,,2013-07-09 13:11:00,
2013-07-09 06:21:00,88.0,69.0,-100.00,SSW,203,15.0,29.0,53,0.00,,,0.00,0.000000,,2013-07-09 13:21:00,
2013-07-09 06:53:00,86.0,71.0,-100.00,SSW,196,15.0,34.0,61,0.00,,,0.00,27.000000,,2013-07-09 13:53:00,
2013-07-09 07:01:00,86.0,71.0,-100.00,SSW,196,15.0,34.0,61,0.00,,,0.00,27.000000,,2013-07-09 14:01:00,
2013-07-09 07:11:00,86.0,71.0,-100.00,SSW,196,15.0,34.0,61,0.00,,,0.00,27.000000,,2013-07-09 14:11:00,
2013-07-09 07:22:00,86.0,71.0,-100.00,SSW,196,15.0,34.0,61,0.00,,,0.00,27.000000,,2013-07-09 14:22:00,
2013-07-09 07:53:00,86.0,72.0,-100.00,South,188,13.0,24.0,64,0.00,,,0.00,121.000000,,2013-07-09 14:53:00,
2013-07-09 08:01:00,86.0,72.0,-100.00,South,188,13.0,24.0,64,0.00,,,0.00,121.000000,,2013-07-09 15:01:00,
2013-07-09 08:11:00,86.0,72.0,-100.00,South,188,13.0,24.0,64,0.00,,,0.00,121.000000,,2013-07-09 15:11:00,
2013-07-09 08:22:00,86.0,72.0,-100.00,South,188,13.0,24.0,64,0.00,,,0.00,121.000000,,2013-07-09 15:22:00,
2013-07-09 09:01:00,88.0,72.0,-100.00,SSW,205,15.0,28.0,59,0.00,,,0.00,281.000000,,2013-07-09 16:01:00,
2013-07-09 09:11:00,88.0,72.0,-100.00,SSW,205,15.0,28.0,59,0.00,,,0.00,281.000000,,2013-07-09 16:11:00,
2013-07-09 09:22:00,88.0,72.0,-100.00,SSW,205,15.0,28.0,59,0.00,,,0.00,281.000000,,2013-07-09 16:22:00,
2013-07-09 09:53:00,92.0,70.0,-100.00,SSW,206,13.0,23.0,49,0.00,,,0.00,555.000000,,2013-07-09 16:53:00,
2013-07-09 10:02:00,92.0,70.0,-100.00,SSW,206,13.0,23.0,49,0.00,,,0.00,555.000000,,2013-07-09 17:02:00,
2013-07-09 10:11:00,92.0,70.0,-100.00,SSW,206,13.0,23.0,49,0.00,,,0.00,555.000000,,2013-07-09 17:11:00,
2013-07-09 10:22:00,92.0,70.0,-100.00,SSW,206,13.0,23.0,49,0.00,,,0.00,555.000000,,2013-07-09 17:22:00,
2013-07-09 10:53:00,92.0,69.0,-100.00,SSW,212,10.0,20.0,47,0.00,,,0.00,570.000000,,2013-07-09 17:53:00,
2013-07-09 11:01:00,92.0,69.0,-100.00,SSW,212,10.0,20.0,47,0.00,,,0.00,570.000000,,2013-07-09 18:01:00,
2013-07-09 11:11:00,92.0,69.0,-100.00,SSW,212,10.0,20.0,47,0.00,,,0.00,570.000000,,2013-07-09 18:11:00,
2013-07-09 11:22:00,92.0,69.0,-100.00,SSW,212,10.0,20.0,47,0.00,,,0.00,570.000000,,2013-07-09 18:22:00,
2013-07-09 11:52:00,96.0,68.0,-100.00,SW,217,9.0,17.0,41,0.00,,,0.00,840.000000,,2013-07-09 18:52:00,
2013-07-09 12:01:00,96.0,68.0,-100.00,SW,217,9.0,17.0,41,0.00,,,0.00,840.000000,,2013-07-09 19:01:00,
2013-07-09 12:11:00,96.0,68.0,-100.00,SW,217,9.0,17.0,41,0.00,,,0.00,840.000000,,2013-07-09 19:11:00,
2013-07-09 12:22:00,96.0,68.0,-100.00,SW,217,9.0,17.0,41,0.00,,,0.00,840.000000,,2013-07-09 19:22:00,
2013-07-09 12:52:00,99.0,66.0,-100.00,SSW,209,7.0,17.0,35,0.00,,,0.00,753.000000,,2013-07-09 19:52:00,
2013-07-09 13:01:00,99.0,66.0,-100.00,SSW,209,7.0,17.0,35,0.00,,,0.00,753.000000,,2013-07-09 20:01:00,
2013-07-09 13:11:00,99.0,66.0,-100.00,SSW,209,7.0,17.0,35,0.00,,,0.00,753.000000,,2013-07-09 20:11:00,
2013-07-09 13:21:00,99.0,66.0,-100.00,SSW,209,7.0,17.0,35,0.00,,,0.00,753.000000,,2013-07-09 20:21:00,
2013-07-09 14:01:00,103.0,64.0,-100.00,SW,227,9.0,16.0,28,0.00,,,0.00,1092.000000,,2013-07-09 21:01:00,
2013-07-09 14:11:00,103.0,64.0,-100.00,SW,227,9.0,16.0,28,0.00,,,0.00,1092.000000,,2013-07-09 21:11:00,
2013-07-09 14:22:00,103.0,64.0,-100.00,SW,227,9.0,16.0,28,0.00,,,0.00,1092.000000,,2013-07-09 21:22:00,
2013-07-09 14:52:00,98.0,65.0,-100.00,SSW,207,16.0,24.0,34,0.00,,,0.00,741.000000,,2013-07-09 21:52:00,
2013-07-09 15:01:00,98.0,65.0,-100.00,SSW,207,16.0,24.0,34,0.00,,,0.00,741.000000,,2013-07-09 22:01:00,
2013-07-09 15:11:00,98.0,65.0,-100.00,SSW,207,16.0,24.0,34,0.00,,,0.00,741.000000,,2013-07-09 22:11:00,
2013-07-09 15:22:00,98.0,65.0,-100.00,SSW,207,16.0,24.0,34,0.00,,,0.00,741.000000,,2013-07-09 22:22:00,
2013-07-09 15:53:00,97.0,63.0,-100.00,SSW,198,14.0,28.0,33,0.00,,,0.00,610.000000,,2013-07-09 22:53:00,
2013-07-09 16:01:00,97.0,63.0,-100.00,SSW,198,14.0,28.0,33,0.00,,,0.00,610.000000,,2013-07-09 23:01:00,
2013-07-09 16:11:00,97.0,63.0,-100.00,SSW,198,14.0,28.0,33,0.00,,,0.00,610.000000,,2013-07-09 23:11:00,
2013-07-09 16:22:00,97.0,63.0,-100.00,SSW,198,14.0,28.0,33,0.00,,,0.00,610.000000,,2013-07-09 23:22:00,
2013-07-09 16:53:00,96.0,64.0,-100.00,SSW,202,15.0,23.0,35,0.00,,,0.00,632.000000,,2013-07-09 23:53:00,
2013-07-09 17:01:00,96.0,64.0,-100.00,SSW,202,15.0,23.0,35,0.00,,,0.00,632.000000,,2013-07-10 00:01:00,
2013-07-09 17:11:00,96.0,64.0,-100.00,SSW,202,15.0,23.0,35,0.00,,,0.00,632.000000,,2013-07-10 00:11:00,
2013-07-09 17:22:00,96.0,64.0,-100.00,SSW,202,15.0,23.0,35,0.00,,,0.00,632.000000,,2013-07-10 00:22:00,
2013-07-09 17:52:00,97.0,64.0,-100.00,SW,219,15.0,25.0,34,0.00,,,-99.99,339.000000,,2013-07-10 00:52:00,
2013-07-09 18:01:00,97.0,64.0,-100.00,SW,219,15.0,25.0,34,0.00,,,-99.99,339.000000,,2013-07-10 01:01:00,
2013-07-09 18:11:00,97.0,64.0,-100.00,SW,219,15.0,25.0,34,0.00,,,-99.99,339.000000,,2013-07-10 01:11:00,
2013-07-09 18:22:00,97.0,64.0,-100.00,SW,219,15.0,25.0,34,0.00,,,-99.99,339.000000,,2013-07-10 01:22:00,
2013-07-09 18:53:00,97.0,66.0,-100.00,SSW,213,12.0,20.0,37,0.00,,,0.00,148.000000,,2013-07-10 01:53:00,
2013-07-09 19:01:00,97.0,66.0,-100.00,SSW,213,12.0,20.0,37,0.00,,,0.00,148.000000,,2013-07-10 02:01:00,
2013-07-09 19:11:00,97.0,66.0,-100.00,SSW,213,12.0,20.0,37,0.00,,,0.00,148.000000,,2013-07-10 02:11:00,
2013-07-09 19:22:00,97.0,66.0,-100.00,SSW,213,12.0,20.0,37,0.00,,,0.00,148.000000,,2013-07-10 02:22:00,
2013-07-09 19:53:00,95.0,68.0,-100.00,SW,219,12.0,19.0,41,0.00,,,0.00,121.000000,,2013-07-10 02:53:00,
2013-07-09 20:01:00,95.0,68.0,-100.00,SW,219,12.0,19.0,41,0.00,,,0.00,121.000000,,2013-07-10 03:01:00,
2013-07-09 20:11:00,95.0,68.0,-100.00,SW,219,12.0,19.0,41,0.00,,,0.00,121.000000,,2013-07-10 03:11:00,
2013-07-09 20:22:00,95.0,68.0,-100.00,SW,219,12.0,19.0,41,0.00,,,0.00,121.000000,,2013-07-10 03:22:00,
2013-07-09 20:52:00,92.0,68.0,-100.00,SW,218,13.0,20.0,45,0.00,,,-99.99,5.000000,,2013-07-10 03:52:00,
2013-07-09 21:01:00,92.0,68.0,-100.00,SW,218,13.0,20.0,45,0.00,,,-99.99,5.000000,,2013-07-10 04:01:00,
2013-07-09 21:11:00,92.0,68.0,-100.00,SW,218,13.0,20.0,45,0.00,,,-99.99,5.000000,,2013-07-10 04:11:00,
2013-07-09 21:22:00,92.0,68.0,-100.00,SW,218,13.0,20.0,45,0.00,,,-99.99,5.000000,,2013-07-10 04:22:00,
2013-07-09 21:52:00,88.0,69.0,-100.00,SSW,207,11.0,22.0,53,0.00,,,0.00,0.000000,,2013-07-10 04:52:00,
2013-07-09 22:02:00,88.0,69.0,-100.00,SSW,207,11.0,22.0,53,0.00,,,0.00,0.000000,,2013-07-10 05:02:00,
2013-07-09 22:11:00,88.0,69.0,-100.00,SSW,207,11.0,22.0,53,0.00,,,0.00,0.000000,,2013-07-10 05:11:00,
2013-07-09 22:22:00,88.0,69.0,-100.00,SSW,207,11.0,22.0,53,0.00,,,0.00,0.000000,,2013-07-10 05:22:00,
2013-07-09 22:53:00,89.0,70.0,-100.00,SSW,210,8.0,16.0,54,0.00,,,0.00,0.000000,,2013-07-10 05:53:00,
2013-07-09 23:01:00,89.0,70.0,-100.00,SSW,210,8.0,16.0,54,0.00,,,0.00,0.000000,,2013-07-10 06:01:00,
2013-07-09 23:11:00,89.0,70.0,-100.00,SSW,210,8.0,16.0,54,0.00,,,0.00,0.000000,,2013-07-10 06:11:00,
2013-07-09 23:21:00,89.0,70.0,-100.00,SSW,210,8.0,16.0,54,0.00,,,0.00,0.000000,,2013-07-10 06:21:00,
2013-07-09 23:52:00,88.0,70.0,-100.00,SW,215,10.0,18.0,55,0.00,,,0.00,0.000000,,2013-07-10 06:52:00,